AMQ463 EPKT-DTTJ
Flight info
| Callsign | AMQ463 |
|---|---|
| Flight time | 2h 37m |
| Altitude | 36000 |
| Route | TUSIN DCT VALPI DCT KOPRY DCT VELUG/N0446F370 DCT AMANO DCT SENTI/N0450F360 DCT RALAK/N0408F240 P623 RIMSA UG362 LIRMI G362 JBA |
| Aircraft | A320/M-SDE3FGHIRWY/LB1 |
Departure
| Time | 2026-04-27 20:56 |
|---|---|
| Airport | Katowice Wojciech Korfanty International Airport (EPKT) |
Arrival
| Time | 2026-04-27 23:33 |
|---|---|
| Airport | Djerba Zarzis International Airport (DTTJ) |
| Time | Latitude | Longitude | Altitude | Speed | Heading |
|---|---|---|---|---|---|
| 2026-04-27 20:27 | 50.47145 | 19.07758 | 1002 ft | 0 kts | 180° |
| 2026-04-27 20:48 | 50.47151 | 19.07758 | 998 ft | 3 kts | 180° |
| 2026-04-27 20:48 | 50.47175 | 19.07758 | 1001 ft | 3 kts | 180° |
| 2026-04-27 20:48 | 50.47199 | 19.07759 | 998 ft | 3 kts | 180° |
| 2026-04-27 20:49 | 50.47221 | 19.07754 | 1001 ft | 3 kts | 147° |
| 2026-04-27 20:49 | 50.47234 | 19.07730 | 998 ft | 3 kts | 94° |
| 2026-04-27 20:49 | 50.47234 | 19.07700 | 998 ft | 3 kts | 90° |
| 2026-04-27 20:49 | 50.47234 | 19.07689 | 998 ft | 0 kts | 90° |
| 2026-04-27 20:52 | 50.47234 | 19.07730 | 998 ft | 12 kts | 91° |
| 2026-04-27 20:52 | 50.47233 | 19.07945 | 1000 ft | 24 kts | 90° |
| 2026-04-27 20:52 | 50.47233 | 19.08209 | 998 ft | 25 kts | 90° |
| 2026-04-27 20:52 | 50.47233 | 19.08483 | 998 ft | 25 kts | 90° |
| 2026-04-27 20:53 | 50.47233 | 19.08764 | 998 ft | 26 kts | 90° |
| 2026-04-27 20:53 | 50.47232 | 19.09031 | 998 ft | 21 kts | 90° |
| 2026-04-27 20:53 | 50.47230 | 19.09267 | 998 ft | 22 kts | 91° |
| 2026-04-27 20:53 | 50.47229 | 19.09515 | 1001 ft | 23 kts | 90° |
| 2026-04-27 20:54 | 50.47241 | 19.10035 | 1000 ft | 24 kts | 60° |
| 2026-04-27 20:54 | 50.47346 | 19.10245 | 998 ft | 25 kts | 51° |
| 2026-04-27 20:54 | 50.47462 | 19.10443 | 999 ft | 24 kts | 18° |
| 2026-04-27 20:55 | 50.47592 | 19.10372 | 1001 ft | 17 kts | 279° |
| 2026-04-27 20:55 | 50.47596 | 19.10165 | 999 ft | 26 kts | 270° |
| 2026-04-27 20:55 | 50.47597 | 19.09486 | 1003 ft | 96 kts | 270° |
| 2026-04-27 20:55 | 50.47599 | 19.08139 | 998 ft | 151 kts | 270° |
| 2026-04-27 20:56 | 50.47595 | 19.06322 | 1279 ft | 172 kts | 270° |
| 2026-04-27 20:56 | 50.47597 | 19.04422 | 1933 ft | 175 kts | 272° |
| 2026-04-27 20:56 | 50.47603 | 19.02490 | 2541 ft | 185 kts | 273° |
| 2026-04-27 20:56 | 50.47611 | 19.00349 | 2805 ft | 209 kts | 272° |
| 2026-04-27 20:57 | 50.47619 | 18.97938 | 3136 ft | 233 kts | 272° |
| 2026-04-27 20:57 | 50.47624 | 18.95271 | 3583 ft | 254 kts | 272° |
| 2026-04-27 20:57 | 50.47625 | 18.92453 | 4378 ft | 260 kts | 271° |
| 2026-04-27 20:57 | 50.47601 | 18.89604 | 5294 ft | 262 kts | 271° |
| 2026-04-27 20:58 | 50.47563 | 18.86729 | 6180 ft | 265 kts | 271° |
| 2026-04-27 20:58 | 50.47520 | 18.83824 | 7047 ft | 267 kts | 272° |
| 2026-04-27 20:58 | 50.47478 | 18.80901 | 7888 ft | 269 kts | 272° |
| 2026-04-27 20:58 | 50.47436 | 18.77954 | 8731 ft | 271 kts | 272° |
| 2026-04-27 20:59 | 50.47395 | 18.74982 | 9575 ft | 274 kts | 271° |
| 2026-04-27 20:59 | 50.47242 | 18.71982 | 10375 ft | 279 kts | 259° |
| 2026-04-27 20:59 | 50.46405 | 18.69134 | 10774 ft | 304 kts | 234° |
| 2026-04-27 20:59 | 50.44664 | 18.67022 | 10973 ft | 335 kts | 205° |
| 2026-04-27 21:00 | 50.42322 | 18.66177 | 11349 ft | 354 kts | 190° |
| 2026-04-27 21:00 | 50.39856 | 18.65724 | 11989 ft | 360 kts | 188° |
| 2026-04-27 21:00 | 50.37343 | 18.65375 | 12697 ft | 365 kts | 187° |
| 2026-04-27 21:00 | 50.34794 | 18.65058 | 13400 ft | 369 kts | 187° |
| 2026-04-27 21:01 | 50.32223 | 18.64729 | 14085 ft | 373 kts | 188° |
| 2026-04-27 21:01 | 50.29632 | 18.64367 | 14680 ft | 376 kts | 188° |
| 2026-04-27 21:01 | 50.27049 | 18.63978 | 15346 ft | 377 kts | 189° |
| 2026-04-27 21:01 | 50.24428 | 18.63564 | 15985 ft | 380 kts | 189° |
| 2026-04-27 21:02 | 50.21785 | 18.63138 | 16610 ft | 383 kts | 189° |
| 2026-04-27 21:02 | 50.19123 | 18.62707 | 17225 ft | 386 kts | 189° |
| 2026-04-27 21:02 | 50.16443 | 18.62275 | 17844 ft | 389 kts | 189° |
| 2026-04-27 21:02 | 50.13735 | 18.61843 | 18444 ft | 393 kts | 190° |
| 2026-04-27 21:03 | 50.10998 | 18.61408 | 18931 ft | 397 kts | 190° |
| 2026-04-27 21:03 | 50.08234 | 18.60971 | 19439 ft | 401 kts | 190° |
| 2026-04-27 21:03 | 50.05447 | 18.60531 | 19957 ft | 404 kts | 189° |
| 2026-04-27 21:03 | 50.02648 | 18.60087 | 20511 ft | 406 kts | 190° |
| 2026-04-27 21:04 | 49.99828 | 18.59640 | 21036 ft | 409 kts | 190° |
| 2026-04-27 21:04 | 49.96986 | 18.59191 | 21548 ft | 412 kts | 190° |
| 2026-04-27 21:04 | 49.94113 | 18.58740 | 22046 ft | 416 kts | 190° |
| 2026-04-27 21:04 | 49.91224 | 18.58290 | 22534 ft | 419 kts | 190° |
| 2026-04-27 21:05 | 49.88308 | 18.57837 | 23012 ft | 422 kts | 190° |
| 2026-04-27 21:05 | 49.85416 | 18.57098 | 23469 ft | 421 kts | 199° |
| 2026-04-27 21:05 | 49.82655 | 18.55643 | 23884 ft | 418 kts | 208° |
| 2026-04-27 21:05 | 49.80047 | 18.53664 | 24271 ft | 418 kts | 211° |
| 2026-04-27 21:06 | 49.77458 | 18.51662 | 24656 ft | 421 kts | 211° |
| 2026-04-27 21:06 | 49.74804 | 18.49622 | 25045 ft | 423 kts | 211° |
| 2026-04-27 21:06 | 49.72156 | 18.47595 | 25420 ft | 425 kts | 211° |
| 2026-04-27 21:06 | 49.69531 | 18.45588 | 25779 ft | 427 kts | 211° |
| 2026-04-27 21:07 | 49.66871 | 18.43552 | 26137 ft | 429 kts | 212° |
| 2026-04-27 21:07 | 49.64187 | 18.41497 | 26498 ft | 432 kts | 212° |
| 2026-04-27 21:07 | 49.61482 | 18.39431 | 26844 ft | 434 kts | 212° |
| 2026-04-27 21:07 | 49.58769 | 18.37366 | 27191 ft | 436 kts | 212° |
| 2026-04-27 21:08 | 49.56045 | 18.35297 | 27533 ft | 438 kts | 212° |
| 2026-04-27 21:08 | 49.53302 | 18.33214 | 27871 ft | 440 kts | 212° |
| 2026-04-27 21:08 | 49.50548 | 18.31119 | 28196 ft | 442 kts | 212° |
| 2026-04-27 21:08 | 49.47785 | 18.29018 | 28528 ft | 444 kts | 212° |
| 2026-04-27 21:09 | 49.45004 | 18.26909 | 28836 ft | 446 kts | 212° |
| 2026-04-27 21:09 | 49.42206 | 18.24791 | 29112 ft | 448 kts | 212° |
| 2026-04-27 21:09 | 49.39407 | 18.22678 | 29419 ft | 449 kts | 212° |
| 2026-04-27 21:09 | 49.36588 | 18.20554 | 29712 ft | 451 kts | 212° |
| 2026-04-27 21:10 | 49.33768 | 18.18433 | 29970 ft | 453 kts | 212° |
| 2026-04-27 21:10 | 49.30930 | 18.16300 | 30228 ft | 454 kts | 212° |
| 2026-04-27 21:10 | 49.28087 | 18.14166 | 30470 ft | 456 kts | 212° |
| 2026-04-27 21:10 | 49.25244 | 18.12035 | 30782 ft | 455 kts | 212° |
| 2026-04-27 21:11 | 49.22405 | 18.09907 | 31057 ft | 454 kts | 212° |
| 2026-04-27 21:11 | 49.19572 | 18.07787 | 31310 ft | 453 kts | 212° |
| 2026-04-27 21:11 | 49.16745 | 18.05677 | 31626 ft | 452 kts | 212° |
| 2026-04-27 21:11 | 49.13926 | 18.03576 | 31934 ft | 451 kts | 212° |
| 2026-04-27 21:12 | 49.11105 | 18.01474 | 32232 ft | 450 kts | 212° |
| 2026-04-27 21:12 | 49.08331 | 17.99404 | 32516 ft | 450 kts | 212° |
| 2026-04-27 21:12 | 49.05488 | 17.97279 | 32810 ft | 449 kts | 212° |
| 2026-04-27 21:12 | 49.02679 | 17.95328 | 33099 ft | 453 kts | 206° |
| 2026-04-27 21:13 | 48.99640 | 17.93943 | 33353 ft | 458 kts | 199° |
| 2026-04-27 21:13 | 48.96545 | 17.92792 | 33642 ft | 458 kts | 200° |
| 2026-04-27 21:13 | 48.93450 | 17.91641 | 33930 ft | 457 kts | 200° |
| 2026-04-27 21:13 | 48.90361 | 17.90492 | 34195 ft | 456 kts | 200° |
| 2026-04-27 21:14 | 48.87278 | 17.89347 | 34439 ft | 456 kts | 199° |
| 2026-04-27 21:14 | 48.84194 | 17.88206 | 34675 ft | 456 kts | 199° |
| 2026-04-27 21:14 | 48.81113 | 17.87066 | 34911 ft | 455 kts | 199° |
| 2026-04-27 21:14 | 48.78035 | 17.85921 | 35114 ft | 455 kts | 200° |
| 2026-04-27 21:15 | 48.74967 | 17.84777 | 35345 ft | 454 kts | 199° |
| 2026-04-27 21:15 | 48.71899 | 17.83633 | 35573 ft | 454 kts | 199° |
| 2026-04-27 21:15 | 48.68829 | 17.82493 | 35794 ft | 453 kts | 199° |
| 2026-04-27 21:15 | 48.65765 | 17.81367 | 36007 ft | 453 kts | 199° |
| 2026-04-27 21:16 | 48.62701 | 17.80246 | 36170 ft | 454 kts | 199° |
| 2026-04-27 21:16 | 48.56571 | 17.78002 | 36189 ft | 453 kts | 199° |
| 2026-04-27 21:17 | 48.50445 | 17.75736 | 36199 ft | 453 kts | 199° |
| 2026-04-27 21:17 | 48.44321 | 17.73482 | 36198 ft | 453 kts | 199° |
| 2026-04-27 21:18 | 48.38236 | 17.71261 | 36193 ft | 453 kts | 199° |
| 2026-04-27 21:18 | 48.32108 | 17.69030 | 36173 ft | 453 kts | 199° |
| 2026-04-27 21:19 | 48.25981 | 17.66813 | 36180 ft | 453 kts | 199° |
| 2026-04-27 21:19 | 48.19855 | 17.64599 | 36184 ft | 453 kts | 199° |
| 2026-04-27 21:20 | 48.10658 | 17.61257 | 36175 ft | 453 kts | 199° |
| 2026-04-27 21:20 | 48.04522 | 17.59045 | 36179 ft | 453 kts | 199° |
| 2026-04-27 21:21 | 47.98432 | 17.56854 | 36182 ft | 453 kts | 199° |
| 2026-04-27 21:21 | 47.92286 | 17.54652 | 36163 ft | 454 kts | 199° |
| 2026-04-27 21:22 | 47.86147 | 17.52454 | 36170 ft | 454 kts | 199° |
| 2026-04-27 21:22 | 47.79994 | 17.50257 | 36174 ft | 454 kts | 199° |
| 2026-04-27 21:23 | 47.73841 | 17.48067 | 36175 ft | 455 kts | 199° |
| 2026-04-27 21:23 | 47.67689 | 17.45875 | 36164 ft | 455 kts | 199° |
| 2026-04-27 21:24 | 47.61530 | 17.43693 | 36171 ft | 455 kts | 199° |
| 2026-04-27 21:24 | 47.55359 | 17.41510 | 36177 ft | 456 kts | 199° |
| 2026-04-27 21:25 | 47.49186 | 17.39329 | 36182 ft | 456 kts | 199° |
| 2026-04-27 21:25 | 47.43007 | 17.37163 | 36186 ft | 456 kts | 199° |
| 2026-04-27 21:26 | 47.36862 | 17.35012 | 36190 ft | 456 kts | 199° |
| 2026-04-27 21:26 | 47.30678 | 17.32837 | 36171 ft | 456 kts | 198° |
| 2026-04-27 21:27 | 47.24493 | 17.30672 | 36176 ft | 457 kts | 198° |
| 2026-04-27 21:27 | 47.18310 | 17.28526 | 36180 ft | 457 kts | 198° |
| 2026-04-27 21:28 | 47.13162 | 17.26736 | 36180 ft | 457 kts | 198° |
| 2026-04-27 21:28 | 47.06982 | 17.24587 | 36158 ft | 457 kts | 198° |
| 2026-04-27 21:29 | 47.00793 | 17.22445 | 36163 ft | 457 kts | 198° |
| 2026-04-27 21:29 | 46.94597 | 17.20300 | 36165 ft | 457 kts | 198° |
| 2026-04-27 21:30 | 46.88406 | 17.18174 | 36142 ft | 457 kts | 198° |
| 2026-04-27 21:30 | 46.82216 | 17.16046 | 36147 ft | 457 kts | 198° |
| 2026-04-27 21:31 | 46.76029 | 17.13920 | 36157 ft | 457 kts | 198° |
| 2026-04-27 21:31 | 46.69840 | 17.11795 | 36148 ft | 457 kts | 198° |
| 2026-04-27 21:32 | 46.63650 | 17.09686 | 36152 ft | 457 kts | 198° |
| 2026-04-27 21:32 | 46.57458 | 17.07588 | 36158 ft | 457 kts | 198° |
| 2026-04-27 21:33 | 46.51263 | 17.05476 | 36141 ft | 457 kts | 198° |
| 2026-04-27 21:33 | 46.45074 | 17.03373 | 36149 ft | 457 kts | 197° |
| 2026-04-27 21:34 | 46.38921 | 17.01294 | 36154 ft | 457 kts | 197° |
| 2026-04-27 21:34 | 46.32720 | 16.99197 | 36153 ft | 457 kts | 197° |
| 2026-04-27 21:35 | 46.26515 | 16.97114 | 36139 ft | 458 kts | 197° |
| 2026-04-27 21:35 | 46.20438 | 16.94546 | 36145 ft | 454 kts | 203° |
| 2026-04-27 21:36 | 46.14433 | 16.91627 | 36149 ft | 455 kts | 203° |
| 2026-04-27 21:36 | 46.08433 | 16.88718 | 36144 ft | 455 kts | 202° |
| 2026-04-27 21:37 | 46.02426 | 16.85821 | 36135 ft | 456 kts | 202° |
| 2026-04-27 21:37 | 45.96448 | 16.82941 | 36145 ft | 456 kts | 202° |
| 2026-04-27 21:38 | 45.90396 | 16.80016 | 36142 ft | 456 kts | 202° |
| 2026-04-27 21:38 | 45.84418 | 16.77152 | 36139 ft | 456 kts | 202° |
| 2026-04-27 21:39 | 45.78388 | 16.74281 | 36139 ft | 456 kts | 202° |
| 2026-04-27 21:39 | 45.72359 | 16.71394 | 36124 ft | 456 kts | 202° |
| 2026-04-27 21:40 | 45.66326 | 16.68509 | 36136 ft | 457 kts | 202° |
| 2026-04-27 21:40 | 45.60295 | 16.65642 | 36135 ft | 457 kts | 202° |
| 2026-04-27 21:41 | 45.54251 | 16.62795 | 36136 ft | 457 kts | 202° |
| 2026-04-27 21:41 | 45.48219 | 16.59944 | 36136 ft | 457 kts | 202° |
| 2026-04-27 21:42 | 45.42183 | 16.57087 | 36139 ft | 457 kts | 202° |
| 2026-04-27 21:42 | 45.36187 | 16.54262 | 36140 ft | 457 kts | 202° |
| 2026-04-27 21:43 | 45.30150 | 16.51424 | 36125 ft | 457 kts | 202° |
| 2026-04-27 21:43 | 45.24105 | 16.48586 | 36130 ft | 457 kts | 202° |
| 2026-04-27 21:44 | 45.18064 | 16.45757 | 36133 ft | 457 kts | 202° |
| 2026-04-27 21:44 | 45.12017 | 16.42942 | 36125 ft | 457 kts | 201° |
| 2026-04-27 21:45 | 45.05970 | 16.40128 | 36134 ft | 458 kts | 201° |
| 2026-04-27 21:45 | 44.99918 | 16.37308 | 36137 ft | 458 kts | 201° |
| 2026-04-27 21:46 | 44.93873 | 16.34500 | 36128 ft | 458 kts | 201° |
| 2026-04-27 21:46 | 44.87810 | 16.31693 | 36135 ft | 458 kts | 201° |
| 2026-04-27 21:47 | 44.81754 | 16.28896 | 36139 ft | 458 kts | 201° |
| 2026-04-27 21:47 | 44.75700 | 16.26107 | 36137 ft | 458 kts | 201° |
| 2026-04-27 21:48 | 44.69636 | 16.23321 | 36140 ft | 458 kts | 201° |
| 2026-04-27 21:48 | 44.63613 | 16.20560 | 36143 ft | 458 kts | 201° |
| 2026-04-27 21:49 | 44.57548 | 16.17793 | 36131 ft | 458 kts | 201° |
| 2026-04-27 21:49 | 44.51484 | 16.15024 | 36136 ft | 459 kts | 201° |
| 2026-04-27 21:50 | 44.45413 | 16.12258 | 36133 ft | 459 kts | 201° |
| 2026-04-27 21:50 | 44.39343 | 16.09496 | 36125 ft | 459 kts | 200° |
| 2026-04-27 21:51 | 44.33265 | 16.06737 | 36131 ft | 459 kts | 200° |
| 2026-04-27 21:51 | 44.27186 | 16.03990 | 36125 ft | 459 kts | 200° |
| 2026-04-27 21:52 | 44.21111 | 16.01243 | 36108 ft | 459 kts | 200° |
| 2026-04-27 21:52 | 44.15072 | 15.98524 | 36106 ft | 459 kts | 200° |
| 2026-04-27 21:53 | 44.08995 | 15.95794 | 36098 ft | 459 kts | 200° |
| 2026-04-27 21:53 | 44.02917 | 15.93060 | 36088 ft | 459 kts | 200° |
| 2026-04-27 21:54 | 43.96835 | 15.90334 | 36091 ft | 459 kts | 200° |
| 2026-04-27 21:54 | 43.90755 | 15.87616 | 36087 ft | 459 kts | 200° |
| 2026-04-27 21:55 | 43.84667 | 15.84905 | 36078 ft | 459 kts | 200° |
| 2026-04-27 21:55 | 43.78590 | 15.82200 | 36082 ft | 459 kts | 200° |
| 2026-04-27 21:56 | 43.69464 | 15.78149 | 36089 ft | 459 kts | 200° |
| 2026-04-27 21:57 | 43.63375 | 15.75457 | 36090 ft | 459 kts | 200° |
| 2026-04-27 21:57 | 43.57291 | 15.72770 | 36094 ft | 459 kts | 200° |
| 2026-04-27 21:58 | 43.51196 | 15.70091 | 36091 ft | 459 kts | 200° |
| 2026-04-27 21:58 | 43.45113 | 15.67420 | 36093 ft | 459 kts | 200° |
| 2026-04-27 21:59 | 43.39073 | 15.64761 | 36091 ft | 459 kts | 200° |
| 2026-04-27 21:59 | 43.32991 | 15.62096 | 36084 ft | 459 kts | 200° |
| 2026-04-27 22:00 | 43.26910 | 15.59440 | 36089 ft | 459 kts | 200° |
| 2026-04-27 22:00 | 43.20828 | 15.56795 | 36091 ft | 458 kts | 200° |
| 2026-04-27 22:01 | 43.14748 | 15.54154 | 36092 ft | 458 kts | 200° |
| 2026-04-27 22:01 | 43.08676 | 15.51511 | 36101 ft | 458 kts | 200° |
| 2026-04-27 22:02 | 43.02609 | 15.48874 | 36102 ft | 457 kts | 200° |
| 2026-04-27 22:02 | 42.96543 | 15.46250 | 36094 ft | 457 kts | 200° |
| 2026-04-27 22:03 | 42.90481 | 15.43638 | 36099 ft | 457 kts | 200° |
| 2026-04-27 22:03 | 42.84486 | 15.40802 | 36105 ft | 455 kts | 202° |
| 2026-04-27 22:04 | 42.78562 | 15.37753 | 36100 ft | 455 kts | 203° |
| 2026-04-27 22:04 | 42.72634 | 15.34731 | 36102 ft | 455 kts | 202° |
| 2026-04-27 22:05 | 42.66689 | 15.31783 | 36102 ft | 455 kts | 202° |
| 2026-04-27 22:05 | 42.60742 | 15.28868 | 36103 ft | 455 kts | 202° |
| 2026-04-27 22:06 | 42.54834 | 15.25969 | 36089 ft | 454 kts | 202° |
| 2026-04-27 22:06 | 42.48890 | 15.23050 | 36093 ft | 454 kts | 202° |
| 2026-04-27 22:07 | 42.42945 | 15.20129 | 36092 ft | 454 kts | 202° |
| 2026-04-27 22:07 | 42.37005 | 15.17218 | 36085 ft | 454 kts | 202° |
| 2026-04-27 22:08 | 42.31060 | 15.14300 | 36091 ft | 454 kts | 202° |
| 2026-04-27 22:08 | 42.25111 | 15.11396 | 36095 ft | 455 kts | 202° |
| 2026-04-27 22:09 | 42.19161 | 15.08505 | 36092 ft | 455 kts | 202° |
| 2026-04-27 22:09 | 42.13205 | 15.05617 | 36095 ft | 455 kts | 202° |
| 2026-04-27 22:10 | 42.07253 | 15.02733 | 36102 ft | 455 kts | 202° |
| 2026-04-27 22:10 | 42.01298 | 14.99841 | 36099 ft | 455 kts | 201° |
| 2026-04-27 22:11 | 41.95341 | 14.96966 | 36101 ft | 455 kts | 201° |
| 2026-04-27 22:11 | 41.89380 | 14.94093 | 36101 ft | 455 kts | 201° |
| 2026-04-27 22:12 | 41.83419 | 14.91224 | 36107 ft | 455 kts | 201° |
| 2026-04-27 22:12 | 41.77494 | 14.88377 | 36111 ft | 455 kts | 201° |
| 2026-04-27 22:13 | 41.71530 | 14.85519 | 36116 ft | 455 kts | 201° |
| 2026-04-27 22:13 | 41.65565 | 14.82665 | 36116 ft | 455 kts | 201° |
| 2026-04-27 22:14 | 41.59589 | 14.79820 | 36119 ft | 455 kts | 201° |
| 2026-04-27 22:14 | 41.53624 | 14.76976 | 36126 ft | 455 kts | 201° |
| 2026-04-27 22:15 | 41.47660 | 14.74136 | 36129 ft | 455 kts | 201° |
| 2026-04-27 22:15 | 41.41695 | 14.71306 | 36132 ft | 455 kts | 201° |
| 2026-04-27 22:16 | 41.36732 | 14.68962 | 36130 ft | 455 kts | 201° |
| 2026-04-27 22:16 | 41.30770 | 14.66144 | 36135 ft | 455 kts | 201° |
| 2026-04-27 22:17 | 41.24806 | 14.63329 | 36127 ft | 455 kts | 201° |
| 2026-04-27 22:17 | 41.18841 | 14.60522 | 36129 ft | 455 kts | 201° |
| 2026-04-27 22:18 | 41.12876 | 14.57715 | 36133 ft | 455 kts | 201° |
| 2026-04-27 22:18 | 41.06910 | 14.54915 | 36131 ft | 455 kts | 201° |
| 2026-04-27 22:19 | 41.00949 | 14.52125 | 36133 ft | 455 kts | 201° |
| 2026-04-27 22:19 | 40.94985 | 14.49332 | 36130 ft | 454 kts | 201° |
| 2026-04-27 22:20 | 40.89022 | 14.46548 | 36135 ft | 454 kts | 201° |
| 2026-04-27 22:20 | 40.83060 | 14.43779 | 36132 ft | 454 kts | 202° |
| 2026-04-27 22:21 | 40.77103 | 14.41014 | 36129 ft | 453 kts | 202° |
| 2026-04-27 22:21 | 40.71192 | 14.38274 | 36130 ft | 453 kts | 202° |
| 2026-04-27 22:22 | 40.65238 | 14.35523 | 36123 ft | 453 kts | 202° |
| 2026-04-27 22:22 | 40.59293 | 14.32770 | 36131 ft | 453 kts | 202° |
| 2026-04-27 22:23 | 40.53354 | 14.30021 | 36122 ft | 452 kts | 202° |
| 2026-04-27 22:23 | 40.47414 | 14.27287 | 36132 ft | 452 kts | 202° |
| 2026-04-27 22:24 | 40.41478 | 14.24566 | 36111 ft | 452 kts | 202° |
| 2026-04-27 22:24 | 40.35547 | 14.21840 | 36120 ft | 451 kts | 202° |
| 2026-04-27 22:25 | 40.29618 | 14.19127 | 36123 ft | 451 kts | 202° |
| 2026-04-27 22:25 | 40.23688 | 14.16423 | 36111 ft | 451 kts | 202° |
| 2026-04-27 22:26 | 40.17765 | 14.13717 | 36119 ft | 451 kts | 202° |
| 2026-04-27 22:26 | 40.11838 | 14.11019 | 36120 ft | 451 kts | 202° |
| 2026-04-27 22:27 | 40.05950 | 14.08347 | 36121 ft | 451 kts | 202° |
| 2026-04-27 22:27 | 40.00026 | 14.05655 | 36124 ft | 450 kts | 202° |
| 2026-04-27 22:28 | 39.94110 | 14.02975 | 36127 ft | 450 kts | 202° |
| 2026-04-27 22:28 | 39.88191 | 14.00303 | 36128 ft | 450 kts | 202° |
| 2026-04-27 22:29 | 39.82279 | 13.97636 | 36127 ft | 450 kts | 202° |
| 2026-04-27 22:29 | 39.76366 | 13.94975 | 36126 ft | 450 kts | 201° |
| 2026-04-27 22:30 | 39.70447 | 13.92317 | 36129 ft | 450 kts | 202° |
| 2026-04-27 22:30 | 39.64532 | 13.89661 | 36129 ft | 450 kts | 201° |
| 2026-04-27 22:31 | 39.58620 | 13.87017 | 36124 ft | 449 kts | 201° |
| 2026-04-27 22:31 | 39.52705 | 13.84374 | 36123 ft | 449 kts | 201° |
| 2026-04-27 22:32 | 39.46794 | 13.81741 | 36126 ft | 449 kts | 201° |
| 2026-04-27 22:32 | 39.40930 | 13.79091 | 36117 ft | 449 kts | 204° |
| 2026-04-27 22:33 | 39.35202 | 13.75950 | 36124 ft | 447 kts | 207° |
| 2026-04-27 22:33 | 39.29576 | 13.72547 | 36128 ft | 446 kts | 207° |
| 2026-04-27 22:34 | 39.23933 | 13.69203 | 36129 ft | 446 kts | 207° |
| 2026-04-27 22:34 | 39.18253 | 13.65969 | 36130 ft | 446 kts | 206° |
| 2026-04-27 22:35 | 39.12566 | 13.62771 | 36135 ft | 446 kts | 206° |
| 2026-04-27 22:35 | 39.06889 | 13.59569 | 36135 ft | 445 kts | 206° |
| 2026-04-27 22:36 | 39.01217 | 13.56350 | 36131 ft | 445 kts | 207° |
| 2026-04-27 22:36 | 38.95549 | 13.53131 | 36118 ft | 445 kts | 206° |
| 2026-04-27 22:37 | 38.89876 | 13.49924 | 36122 ft | 445 kts | 206° |
| 2026-04-27 22:37 | 38.84203 | 13.46720 | 36121 ft | 446 kts | 206° |
| 2026-04-27 22:38 | 38.78516 | 13.43527 | 36107 ft | 446 kts | 206° |
| 2026-04-27 22:38 | 38.72866 | 13.40361 | 36112 ft | 446 kts | 206° |
| 2026-04-27 22:39 | 38.67190 | 13.37172 | 36117 ft | 446 kts | 206° |
| 2026-04-27 22:39 | 38.61506 | 13.33994 | 36114 ft | 446 kts | 206° |
| 2026-04-27 22:40 | 38.55829 | 13.30823 | 36115 ft | 445 kts | 207° |
| 2026-04-27 22:40 | 38.50149 | 13.27650 | 36119 ft | 445 kts | 207° |
| 2026-04-27 22:41 | 38.44480 | 13.24498 | 36121 ft | 445 kts | 207° |
| 2026-04-27 22:41 | 38.38806 | 13.21352 | 36121 ft | 444 kts | 207° |
| 2026-04-27 22:42 | 38.33135 | 13.18205 | 36115 ft | 444 kts | 207° |
| 2026-04-27 22:42 | 38.27479 | 13.15064 | 36123 ft | 443 kts | 207° |
| 2026-04-27 22:43 | 38.21820 | 13.11930 | 36105 ft | 443 kts | 207° |
| 2026-04-27 22:43 | 38.16156 | 13.08796 | 36103 ft | 443 kts | 207° |
| 2026-04-27 22:44 | 38.10533 | 13.05695 | 36096 ft | 443 kts | 207° |
| 2026-04-27 22:44 | 38.04873 | 13.02593 | 36104 ft | 443 kts | 207° |
| 2026-04-27 22:45 | 37.99213 | 12.99492 | 36108 ft | 443 kts | 207° |
| 2026-04-27 22:45 | 37.93548 | 12.96382 | 36138 ft | 443 kts | 208° |
| 2026-04-27 22:46 | 37.87881 | 12.93277 | 36112 ft | 444 kts | 208° |
| 2026-04-27 22:46 | 37.82213 | 12.90179 | 36107 ft | 444 kts | 208° |
| 2026-04-27 22:47 | 37.76530 | 12.87073 | 36106 ft | 445 kts | 208° |
| 2026-04-27 22:47 | 37.70841 | 12.83970 | 36106 ft | 445 kts | 208° |
| 2026-04-27 22:48 | 37.65187 | 12.80904 | 36105 ft | 445 kts | 208° |
| 2026-04-27 22:48 | 37.59496 | 12.77811 | 36107 ft | 445 kts | 208° |
| 2026-04-27 22:49 | 37.53800 | 12.74720 | 36089 ft | 446 kts | 208° |
| 2026-04-27 22:49 | 37.48098 | 12.71643 | 36086 ft | 446 kts | 208° |
| 2026-04-27 22:50 | 37.42396 | 12.68567 | 36091 ft | 446 kts | 208° |
| 2026-04-27 22:50 | 37.36688 | 12.65484 | 36095 ft | 446 kts | 208° |
| 2026-04-27 22:51 | 37.30982 | 12.62415 | 36099 ft | 446 kts | 208° |
| 2026-04-27 22:51 | 37.25271 | 12.59344 | 36091 ft | 446 kts | 209° |
| 2026-04-27 22:52 | 37.19574 | 12.56285 | 36103 ft | 445 kts | 209° |
| 2026-04-27 22:52 | 37.13810 | 12.53403 | 36109 ft | 448 kts | 205° |
| 2026-04-27 22:53 | 37.07864 | 12.50992 | 36106 ft | 450 kts | 203° |
| 2026-04-27 22:53 | 37.01882 | 12.48703 | 36099 ft | 448 kts | 204° |
| 2026-04-27 22:54 | 36.95951 | 12.46338 | 36121 ft | 447 kts | 205° |
| 2026-04-27 22:54 | 36.90047 | 12.43911 | 36115 ft | 446 kts | 205° |
| 2026-04-27 22:55 | 36.84180 | 12.41505 | 36114 ft | 446 kts | 205° |
| 2026-04-27 22:55 | 36.78283 | 12.39106 | 36091 ft | 445 kts | 205° |
| 2026-04-27 22:56 | 36.72403 | 12.36720 | 36107 ft | 444 kts | 205° |
| 2026-04-27 22:56 | 36.66529 | 12.34334 | 36113 ft | 443 kts | 205° |
| 2026-04-27 22:57 | 36.60663 | 12.31959 | 36112 ft | 443 kts | 205° |
| 2026-04-27 22:57 | 36.54803 | 12.29590 | 36098 ft | 443 kts | 205° |
| 2026-04-27 22:58 | 36.48945 | 12.27226 | 36101 ft | 442 kts | 205° |
| 2026-04-27 22:58 | 36.43089 | 12.24873 | 36102 ft | 442 kts | 205° |
| 2026-04-27 22:59 | 36.37240 | 12.22516 | 36097 ft | 442 kts | 205° |
| 2026-04-27 22:59 | 36.31385 | 12.20160 | 36076 ft | 442 kts | 206° |
| 2026-04-27 23:00 | 36.22638 | 12.16665 | 36079 ft | 442 kts | 206° |
| 2026-04-27 23:00 | 36.16784 | 12.14319 | 36082 ft | 442 kts | 206° |
| 2026-04-27 23:01 | 36.10920 | 12.11980 | 36065 ft | 442 kts | 206° |
| 2026-04-27 23:01 | 36.05058 | 12.09646 | 36070 ft | 442 kts | 206° |
| 2026-04-27 23:02 | 35.99202 | 12.07314 | 36077 ft | 442 kts | 206° |
| 2026-04-27 23:02 | 35.93338 | 12.04975 | 36075 ft | 442 kts | 206° |
| 2026-04-27 23:03 | 35.87482 | 12.02649 | 36049 ft | 442 kts | 206° |
| 2026-04-27 23:03 | 35.81632 | 12.00333 | 36066 ft | 442 kts | 206° |
| 2026-04-27 23:04 | 35.75781 | 11.98020 | 36072 ft | 441 kts | 206° |
| 2026-04-27 23:04 | 35.69934 | 11.95718 | 36076 ft | 441 kts | 206° |
| 2026-04-27 23:05 | 35.64124 | 11.93422 | 36051 ft | 441 kts | 206° |
| 2026-04-27 23:05 | 35.58287 | 11.91117 | 36066 ft | 440 kts | 206° |
| 2026-04-27 23:06 | 35.53437 | 11.89215 | 36078 ft | 440 kts | 206° |
| 2026-04-27 23:06 | 35.47615 | 11.86933 | 36083 ft | 439 kts | 206° |
| 2026-04-27 23:07 | 35.41796 | 11.84649 | 36081 ft | 439 kts | 206° |
| 2026-04-27 23:07 | 35.35970 | 11.82368 | 36077 ft | 439 kts | 206° |
| 2026-04-27 23:08 | 35.30151 | 11.80100 | 36076 ft | 439 kts | 206° |
| 2026-04-27 23:08 | 35.27234 | 11.78958 | 35893 ft | 439 kts | 206° |
| 2026-04-27 23:08 | 35.24328 | 11.77821 | 35642 ft | 439 kts | 206° |
| 2026-04-27 23:09 | 35.21413 | 11.76684 | 35402 ft | 439 kts | 206° |
| 2026-04-27 23:09 | 35.18499 | 11.75547 | 35165 ft | 439 kts | 206° |
| 2026-04-27 23:09 | 35.15587 | 11.74415 | 34890 ft | 438 kts | 206° |
| 2026-04-27 23:09 | 35.12686 | 11.73290 | 34653 ft | 437 kts | 207° |
| 2026-04-27 23:10 | 35.09792 | 11.72166 | 34416 ft | 437 kts | 207° |
| 2026-04-27 23:10 | 35.06891 | 11.71037 | 34179 ft | 437 kts | 207° |
| 2026-04-27 23:10 | 35.03992 | 11.69907 | 33469 ft | 440 kts | 206° |
| 2026-04-27 23:10 | 35.01061 | 11.68763 | 32524 ft | 444 kts | 206° |
| 2026-04-27 23:11 | 34.98151 | 11.67633 | 31862 ft | 442 kts | 205° |
| 2026-04-27 23:11 | 34.95234 | 11.66509 | 31281 ft | 439 kts | 205° |
| 2026-04-27 23:11 | 34.92328 | 11.65391 | 30657 ft | 437 kts | 205° |
| 2026-04-27 23:11 | 34.89436 | 11.64277 | 30066 ft | 434 kts | 205° |
| 2026-04-27 23:12 | 34.86525 | 11.63152 | 29410 ft | 431 kts | 205° |
| 2026-04-27 23:12 | 34.83714 | 11.62069 | 28844 ft | 427 kts | 205° |
| 2026-04-27 23:12 | 34.80894 | 11.60986 | 28264 ft | 423 kts | 205° |
| 2026-04-27 23:12 | 34.78095 | 11.59910 | 27691 ft | 420 kts | 204° |
| 2026-04-27 23:13 | 34.75319 | 11.58839 | 27126 ft | 417 kts | 204° |
| 2026-04-27 23:13 | 34.72561 | 11.57775 | 26565 ft | 415 kts | 204° |
| 2026-04-27 23:13 | 34.69821 | 11.56721 | 26010 ft | 412 kts | 204° |
| 2026-04-27 23:13 | 34.67093 | 11.55673 | 25464 ft | 409 kts | 204° |
| 2026-04-27 23:14 | 34.64392 | 11.54636 | 24942 ft | 407 kts | 204° |
| 2026-04-27 23:14 | 34.61694 | 11.53599 | 24422 ft | 405 kts | 204° |
| 2026-04-27 23:14 | 34.59013 | 11.52566 | 23916 ft | 403 kts | 204° |
| 2026-04-27 23:14 | 34.56344 | 11.51538 | 23382 ft | 401 kts | 203° |
| 2026-04-27 23:15 | 34.53736 | 11.50401 | 22870 ft | 393 kts | 211° |
| 2026-04-27 23:15 | 34.51411 | 11.48764 | 22387 ft | 381 kts | 221° |
| 2026-04-27 23:15 | 34.49421 | 11.46697 | 21926 ft | 373 kts | 228° |
| 2026-04-27 23:15 | 34.47533 | 11.44558 | 21466 ft | 370 kts | 228° |
| 2026-04-27 23:16 | 34.45653 | 11.42446 | 20996 ft | 367 kts | 227° |
| 2026-04-27 23:16 | 34.43783 | 11.40352 | 20532 ft | 364 kts | 227° |
| 2026-04-27 23:16 | 34.41930 | 11.38279 | 20056 ft | 362 kts | 227° |
| 2026-04-27 23:16 | 34.40113 | 11.36244 | 19582 ft | 360 kts | 227° |
| 2026-04-27 23:17 | 34.38279 | 11.34191 | 19089 ft | 359 kts | 227° |
| 2026-04-27 23:17 | 34.36451 | 11.32140 | 18591 ft | 358 kts | 227° |
| 2026-04-27 23:17 | 34.34634 | 11.30086 | 18058 ft | 357 kts | 227° |
| 2026-04-27 23:17 | 34.32828 | 11.28028 | 17551 ft | 355 kts | 227° |
| 2026-04-27 23:18 | 34.31037 | 11.25982 | 17063 ft | 353 kts | 227° |
| 2026-04-27 23:18 | 34.29257 | 11.23951 | 16574 ft | 351 kts | 227° |
| 2026-04-27 23:18 | 34.27487 | 11.21932 | 16095 ft | 349 kts | 227° |
| 2026-04-27 23:18 | 34.25723 | 11.19925 | 15620 ft | 347 kts | 226° |
| 2026-04-27 23:19 | 34.23971 | 11.17935 | 15149 ft | 345 kts | 226° |
| 2026-04-27 23:19 | 34.22220 | 11.15952 | 14660 ft | 344 kts | 226° |
| 2026-04-27 23:19 | 34.20477 | 11.13985 | 14188 ft | 342 kts | 226° |
| 2026-04-27 23:19 | 34.18745 | 11.12014 | 13704 ft | 341 kts | 229° |
| 2026-04-27 23:20 | 34.17289 | 11.09789 | 13207 ft | 336 kts | 238° |
| 2026-04-27 23:20 | 34.15998 | 11.07450 | 12722 ft | 333 kts | 238° |
| 2026-04-27 23:20 | 34.14719 | 11.05132 | 12257 ft | 330 kts | 238° |
| 2026-04-27 23:20 | 34.13467 | 11.02864 | 11780 ft | 328 kts | 238° |
| 2026-04-27 23:21 | 34.12208 | 11.00582 | 11298 ft | 325 kts | 238° |
| 2026-04-27 23:21 | 34.10957 | 10.98312 | 10815 ft | 323 kts | 238° |
| 2026-04-27 23:21 | 34.09717 | 10.96064 | 10386 ft | 319 kts | 237° |
| 2026-04-27 23:21 | 34.08511 | 10.93884 | 10271 ft | 306 kts | 237° |
| 2026-04-27 23:22 | 34.07354 | 10.91798 | 10143 ft | 293 kts | 237° |
| 2026-04-27 23:22 | 34.06244 | 10.89796 | 10002 ft | 282 kts | 237° |
| 2026-04-27 23:22 | 34.05167 | 10.87855 | 9764 ft | 276 kts | 237° |
| 2026-04-27 23:22 | 34.04098 | 10.85926 | 9276 ft | 275 kts | 237° |
| 2026-04-27 23:23 | 34.03044 | 10.84025 | 8742 ft | 271 kts | 236° |
| 2026-04-27 23:23 | 34.02001 | 10.82144 | 8232 ft | 268 kts | 236° |
| 2026-04-27 23:23 | 34.00968 | 10.80284 | 7735 ft | 266 kts | 235° |
| 2026-04-27 23:23 | 33.99943 | 10.78444 | 7231 ft | 264 kts | 233° |
| 2026-04-27 23:24 | 33.98907 | 10.76583 | 6740 ft | 270 kts | 233° |
| 2026-04-27 23:24 | 33.97862 | 10.74705 | 6226 ft | 270 kts | 232° |
| 2026-04-27 23:24 | 33.96813 | 10.72821 | 5708 ft | 271 kts | 233° |
| 2026-04-27 23:24 | 33.95763 | 10.70936 | 5196 ft | 271 kts | 233° |
| 2026-04-27 23:25 | 33.94727 | 10.69078 | 4606 ft | 271 kts | 232° |
| 2026-04-27 23:25 | 33.93715 | 10.67254 | 4404 ft | 251 kts | 232° |
| 2026-04-27 23:25 | 33.92768 | 10.65545 | 4173 ft | 242 kts | 232° |
| 2026-04-27 23:25 | 33.91828 | 10.63858 | 4036 ft | 242 kts | 232° |
| 2026-04-27 23:26 | 33.90885 | 10.62171 | 3920 ft | 243 kts | 232° |
| 2026-04-27 23:26 | 33.89944 | 10.60484 | 3819 ft | 241 kts | 232° |
| 2026-04-27 23:26 | 33.89033 | 10.58848 | 3709 ft | 230 kts | 232° |
| 2026-04-27 23:26 | 33.88164 | 10.57286 | 3624 ft | 219 kts | 231° |
| 2026-04-27 23:27 | 33.87323 | 10.55784 | 3519 ft | 215 kts | 230° |
| 2026-04-27 23:27 | 33.86368 | 10.54449 | 3404 ft | 205 kts | 205° |
| 2026-04-27 23:27 | 33.85082 | 10.54018 | 3218 ft | 187 kts | 168° |
| 2026-04-27 23:27 | 33.83935 | 10.54499 | 3083 ft | 167 kts | 139° |
| 2026-04-27 23:28 | 33.83228 | 10.55522 | 2917 ft | 155 kts | 113° |
| 2026-04-27 23:28 | 33.83033 | 10.56724 | 2777 ft | 146 kts | 90° |
| 2026-04-27 23:28 | 33.83450 | 10.57798 | 2637 ft | 145 kts | 54° |
| 2026-04-27 23:28 | 33.84026 | 10.58726 | 2569 ft | 136 kts | 65° |
| 2026-04-27 23:29 | 33.84538 | 10.59725 | 2567 ft | 153 kts | 64° |
| 2026-04-27 23:29 | 33.85120 | 10.60861 | 2399 ft | 161 kts | 64° |
| 2026-04-27 23:29 | 33.85709 | 10.62001 | 2221 ft | 159 kts | 64° |
| 2026-04-27 23:29 | 33.86289 | 10.63123 | 2042 ft | 157 kts | 64° |
| 2026-04-27 23:30 | 33.86791 | 10.64271 | 1865 ft | 152 kts | 74° |
| 2026-04-27 23:30 | 33.87039 | 10.65421 | 1705 ft | 135 kts | 82° |
| 2026-04-27 23:30 | 33.87162 | 10.66513 | 1536 ft | 130 kts | 85° |
| 2026-04-27 23:30 | 33.87236 | 10.67589 | 1371 ft | 128 kts | 86° |
| 2026-04-27 23:31 | 33.87288 | 10.68653 | 1197 ft | 127 kts | 88° |
| 2026-04-27 23:31 | 33.87328 | 10.69714 | 1039 ft | 126 kts | 88° |
| 2026-04-27 23:31 | 33.87361 | 10.70779 | 868 ft | 131 kts | 88° |
| 2026-04-27 23:31 | 33.87393 | 10.71856 | 709 ft | 128 kts | 85° |
| 2026-04-27 23:32 | 33.87422 | 10.72935 | 557 ft | 129 kts | 85° |
| 2026-04-27 23:32 | 33.87449 | 10.74001 | 397 ft | 127 kts | 86° |
| 2026-04-27 23:32 | 33.87473 | 10.75066 | 207 ft | 129 kts | 84° |
| 2026-04-27 23:32 | 33.87506 | 10.76128 | 64 ft | 127 kts | 88° |
| 2026-04-27 23:33 | 33.87530 | 10.77114 | 21 ft | 99 kts | 88° |
| 2026-04-27 23:33 | 33.87546 | 10.77737 | 23 ft | 55 kts | 88° |
| 2026-04-27 23:33 | 33.87556 | 10.78146 | 23 ft | 42 kts | 90° |
| 2026-04-27 23:33 | 33.87456 | 10.78240 | 27 ft | 16 kts | 182° |
| 2026-04-27 23:34 | 33.87362 | 10.78176 | 27 ft | 16 kts | 196° |
| 2026-04-27 23:34 | 33.87313 | 10.78175 | 27 ft | 0 kts | 176° |